sensor_id;sensor_type;location;lat;lon;timestamp;pressure;altitude;pressure_sealevel;temperature;humidity
51067;BME280;37112;45.892;-123.962;2023-04-04T00:00:00;101978.02;;;8.95;63.63
51067;BME280;37112;45.892;-123.962;2023-04-04T00:02:31;101974.61;;;9.09;63.63
51067;BME280;37112;45.892;-123.962;2023-04-04T00:04:41;101971.55;;;9.28;63.34
51067;BME280;37112;45.892;-123.962;2023-04-04T00:06:51;101969.58;;;9.53;64.93
51067;BME280;37112;45.892;-123.962;2023-04-04T00:09:01;101965.73;;;9.80;64.14
51067;BME280;37112;45.892;-123.962;2023-04-04T00:11:11;101962.00;;;9.95;62.56
51067;BME280;37112;45.892;-123.962;2023-04-04T00:13:21;101969.83;;;9.95;61.98
51067;BME280;37112;45.892;-123.962;2023-04-04T00:15:32;101967.70;;;9.88;60.60
51067;BME280;37112;45.892;-123.962;2023-04-04T00:17:43;101963.85;;;9.82;60.91
51067;BME280;37112;45.892;-123.962;2023-04-04T00:19:53;101964.65;;;9.80;61.06
51067;BME280;37112;45.892;-123.962;2023-04-04T00:22:04;101961.16;;;9.71;60.69
51067;BME280;37112;45.892;-123.962;2023-04-04T00:24:14;101962.48;;;9.52;60.03
51067;BME280;37112;45.892;-123.962;2023-04-04T00:26:24;101965.27;;;9.38;60.30
51067;BME280;37112;45.892;-123.962;2023-04-04T00:28:35;101973.07;;;9.21;60.31
51067;BME280;37112;45.892;-123.962;2023-04-04T00:30:45;101968.55;;;9.06;61.42
51067;BME280;37112;45.892;-123.962;2023-04-04T00:32:55;101969.09;;;8.93;62.21
51067;BME280;37112;45.892;-123.962;2023-04-04T00:35:07;101972.36;;;8.82;62.93
51067;BME280;37112;45.892;-123.962;2023-04-04T00:37:18;101972.42;;;8.72;62.88
51067;BME280;37112;45.892;-123.962;2023-04-04T00:39:28;101975.40;;;8.59;64.21
51067;BME280;37112;45.892;-123.962;2023-04-04T00:41:39;101975.23;;;8.45;65.51
51067;BME280;37112;45.892;-123.962;2023-04-04T00:43:49;101975.75;;;8.36;66.92
51067;BME280;37112;45.892;-123.962;2023-04-04T00:45:59;101976.52;;;8.24;68.02
51067;BME280;37112;45.892;-123.962;2023-04-04T00:48:10;101973.54;;;8.14;68.85
51067;BME280;37112;45.892;-123.962;2023-04-04T00:50:20;101972.42;;;8.11;69.36
51067;BME280;37112;45.892;-123.962;2023-04-04T00:52:30;101971.58;;;8.10;69.61
51067;BME280;37112;45.892;-123.962;2023-04-04T00:54:40;101971.12;;;8.07;69.42
51067;BME280;37112;45.892;-123.962;2023-04-04T00:56:50;101968.08;;;8.09;69.72
51067;BME280;37112;45.892;-123.962;2023-04-04T00:59:02;101971.35;;;8.11;70.06
51067;BME280;37112;45.892;-123.962;2023-04-04T01:01:13;101970.51;;;8.10;70.12
51067;BME280;37112;45.892;-123.962;2023-04-04T01:03:23;101969.40;;;8.16;70.27
51067;BME280;37112;45.892;-123.962;2023-04-04T01:05:33;101970.58;;;8.22;71.10
51067;BME280;37112;45.892;-123.962;2023-04-04T01:07:43;101969.66;;;8.19;69.46
51067;BME280;37112;45.892;-123.962;2023-04-04T01:09:57;101972.92;;;8.12;70.53
51067;BME280;37112;45.892;-123.962;2023-04-04T01:12:07;101973.93;;;8.08;71.17
51067;BME280;37112;45.892;-123.962;2023-04-04T01:14:19;101972.98;;;8.01;70.61
51067;BME280;37112;45.892;-123.962;2023-04-04T01:16:29;101978.67;;;7.90;69.35
51067;BME280;37112;45.892;-123.962;2023-04-04T01:18:39;101976.17;;;7.86;68.70
51067;BME280;37112;45.892;-123.962;2023-04-04T01:20:53;101976.72;;;7.85;67.64
51067;BME280;37112;45.892;-123.962;2023-04-04T01:23:05;101975.77;;;7.87;67.56
51067;BME280;37112;45.892;-123.962;2023-04-04T01:27:35;101970.86;;;8.00;68.01
51067;BME280;37112;45.892;-123.962;2023-04-04T01:29:51;101977.27;;;8.09;67.57
51067;BME280;37112;45.892;-123.962;2023-04-04T01:32:06;101973.13;;;8.12;66.79
51067;BME280;37112;45.892;-123.962;2023-04-04T01:34:23;101971.48;;;8.08;66.13
51067;BME280;37112;45.892;-123.962;2023-04-04T01:36:41;101973.60;;;8.03;66.41
51067;BME280;37112;45.892;-123.962;2023-04-04T01:38:57;101975.06;;;8.01;66.89
51067;BME280;37112;45.892;-123.962;2023-04-04T01:41:09;101975.67;;;7.99;66.97
51067;BME280;37112;45.892;-123.962;2023-04-04T01:43:25;101972.29;;;7.95;67.14
51067;BME280;37112;45.892;-123.962;2023-04-04T01:45:37;101977.03;;;7.91;66.57
51067;BME280;37112;45.892;-123.962;2023-04-04T01:47:51;101976.45;;;7.88;65.92
51067;BME280;37112;45.892;-123.962;2023-04-04T01:50:02;101975.39;;;7.88;66.21
51067;BME280;37112;45.892;-123.962;2023-04-04T01:52:12;101976.26;;;7.89;66.72
51067;BME280;37112;45.892;-123.962;2023-04-04T01:54:23;101972.38;;;7.88;66.83
51067;BME280;37112;45.892;-123.962;2023-04-04T01:56:32;101970.14;;;7.87;66.62
51067;BME280;37112;45.892;-123.962;2023-04-04T01:58:43;101972.06;;;7.82;66.40
51067;BME280;37112;45.892;-123.962;2023-04-04T02:00:53;101969.54;;;7.79;66.65
51067;BME280;37112;45.892;-123.962;2023-04-04T02:03:04;101970.30;;;7.77;67.14
51067;BME280;37112;45.892;-123.962;2023-04-04T02:05:14;101966.61;;;7.76;67.64
51067;BME280;37112;45.892;-123.962;2023-04-04T02:07:25;101962.98;;;7.74;66.63
51067;BME280;37112;45.892;-123.962;2023-04-04T02:09:36;101963.23;;;7.72;65.78
51067;BME280;37112;45.892;-123.962;2023-04-04T02:11:46;101964.21;;;7.69;65.58
51067;BME280;37112;45.892;-123.962;2023-04-04T02:13:57;101965.11;;;7.69;66.63
51067;BME280;37112;45.892;-123.962;2023-04-04T02:16:08;101963.19;;;7.68;66.44
51067;BME280;37112;45.892;-123.962;2023-04-04T02:18:18;101965.90;;;7.67;69.31
51067;BME280;37112;45.892;-123.962;2023-04-04T02:20:28;101968.77;;;7.55;70.41
51067;BME280;37112;45.892;-123.962;2023-04-04T02:22:38;101969.30;;;7.40;71.04
51067;BME280;37112;45.892;-123.962;2023-04-04T02:24:48;101971.84;;;7.23;70.88
51067;BME280;37112;45.892;-123.962;2023-04-04T02:26:58;101972.12;;;7.09;70.71
51067;BME280;37112;45.892;-123.962;2023-04-04T02:29:08;101971.59;;;6.98;69.70
51067;BME280;37112;45.892;-123.962;2023-04-04T02:31:18;101972.64;;;6.93;70.70
51067;BME280;37112;45.892;-123.962;2023-04-04T02:33:29;101969.67;;;6.91;71.05
51067;BME280;37112;45.892;-123.962;2023-04-04T02:35:41;101966.32;;;6.91;71.37
51067;BME280;37112;45.892;-123.962;2023-04-04T02:37:51;101965.05;;;6.93;71.63
51067;BME280;37112;45.892;-123.962;2023-04-04T02:40:05;101966.63;;;6.93;71.82
51067;BME280;37112;45.892;-123.962;2023-04-04T02:42:16;101966.14;;;6.92;71.31
51067;BME280;37112;45.892;-123.962;2023-04-04T02:44:27;101964.80;;;6.90;70.80
51067;BME280;37112;45.892;-123.962;2023-04-04T02:46:37;101963.45;;;6.88;70.62
51067;BME280;37112;45.892;-123.962;2023-04-04T02:48:48;101966.98;;;6.88;70.92
51067;BME280;37112;45.892;-123.962;2023-04-04T02:50:59;101968.66;;;6.90;71.66
51067;BME280;37112;45.892;-123.962;2023-04-04T02:53:09;101971.21;;;6.93;71.71
51067;BME280;37112;45.892;-123.962;2023-04-04T02:55:19;101976.83;;;6.95;72.03
51067;BME280;37112;45.892;-123.962;2023-04-04T02:57:29;101981.33;;;6.97;72.75
51067;BME280;37112;45.892;-123.962;2023-04-04T02:59:39;101985.74;;;6.97;71.35
51067;BME280;37112;45.892;-123.962;2023-04-04T03:01:49;101979.95;;;6.91;70.06
51067;BME280;37112;45.892;-123.962;2023-04-04T03:04:00;101983.05;;;6.88;69.21
51067;BME280;37112;45.892;-123.962;2023-04-04T03:06:12;101982.56;;;6.87;69.01
51067;BME280;37112;45.892;-123.962;2023-04-04T03:08:22;101983.34;;;6.84;67.99
51067;BME280;37112;45.892;-123.962;2023-04-04T03:10:35;101983.52;;;6.84;68.25
51067;BME280;37112;45.892;-123.962;2023-04-04T03:12:46;101989.81;;;6.86;69.08
51067;BME280;37112;45.892;-123.962;2023-04-04T03:14:56;101987.09;;;6.88;69.38
51067;BME280;37112;45.892;-123.962;2023-04-04T03:17:06;101987.38;;;6.90;70.31
51067;BME280;37112;45.892;-123.962;2023-04-04T03:19:16;101995.13;;;6.91;70.30
51067;BME280;37112;45.892;-123.962;2023-04-04T03:21:27;101997.60;;;6.90;70.28
51067;BME280;37112;45.892;-123.962;2023-04-04T03:23:37;101999.44;;;6.89;70.20
51067;BME280;37112;45.892;-123.962;2023-04-04T03:25:47;102001.39;;;6.89;70.68
51067;BME280;37112;45.892;-123.962;2023-04-04T03:27:58;102001.94;;;6.88;70.81
51067;BME280;37112;45.892;-123.962;2023-04-04T03:30:16;102003.20;;;6.87;71.08
51067;BME280;37112;45.892;-123.962;2023-04-04T03:32:27;102006.55;;;6.87;71.18
51067;BME280;37112;45.892;-123.962;2023-04-04T03:34:38;102005.73;;;6.86;70.73
51067;BME280;37112;45.892;-123.962;2023-04-04T03:36:48;101997.48;;;6.83;70.63
51067;BME280;37112;45.892;-123.962;2023-04-04T03:38:59;102002.95;;;6.83;70.98
51067;BME280;37112;45.892;-123.962;2023-04-04T03:41:09;102001.16;;;6.85;71.58
51067;BME280;37112;45.892;-123.962;2023-04-04T03:43:19;102001.88;;;6.84;71.47
51067;BME280;37112;45.892;-123.962;2023-04-04T03:45:32;102002.55;;;6.80;71.38
51067;BME280;37112;45.892;-123.962;2023-04-04T03:47:43;102001.42;;;6.77;71.25
51067;BME280;37112;45.892;-123.962;2023-04-04T03:49:53;101999.59;;;6.73;71.12
51067;BME280;37112;45.892;-123.962;2023-04-04T03:52:03;102001.77;;;6.71;71.05
51067;BME280;37112;45.892;-123.962;2023-04-04T03:54:14;102004.22;;;6.72;70.88
51067;BME280;37112;45.892;-123.962;2023-04-04T03:56:25;101999.77;;;6.73;70.50
51067;BME280;37112;45.892;-123.962;2023-04-04T03:58:36;102000.01;;;6.77;71.08
51067;BME280;37112;45.892;-123.962;2023-04-04T04:00:46;102000.92;;;6.81;71.16
51067;BME280;37112;45.892;-123.962;2023-04-04T04:02:56;102008.19;;;6.80;70.28
51067;BME280;37112;45.892;-123.962;2023-04-04T04:05:07;102006.16;;;6.77;70.01
51067;BME280;37112;45.892;-123.962;2023-04-04T04:07:17;102003.21;;;6.75;70.22
51067;BME280;37112;45.892;-123.962;2023-04-04T04:09:27;102008.46;;;6.77;70.61
51067;BME280;37112;45.892;-123.962;2023-04-04T04:11:37;102017.95;;;6.79;71.32
51067;BME280;37112;45.892;-123.962;2023-04-04T04:13:47;102033.94;;;6.75;71.78
51067;BME280;37112;45.892;-123.962;2023-04-04T04:15:57;102027.63;;;6.56;71.48
51067;BME280;37112;45.892;-123.962;2023-04-04T04:18:08;102029.17;;;6.34;71.82
51067;BME280;37112;45.892;-123.962;2023-04-04T04:20:18;102021.17;;;6.17;72.45
51067;BME280;37112;45.892;-123.962;2023-04-04T04:22:31;102020.96;;;6.06;72.80
51067;BME280;37112;45.892;-123.962;2023-04-04T04:24:41;102018.10;;;5.95;72.22
51067;BME280;37112;45.892;-123.962;2023-04-04T04:26:51;102023.29;;;5.85;71.86
51067;BME280;37112;45.892;-123.962;2023-04-04T04:29:01;102029.30;;;5.77;71.82
51067;BME280;37112;45.892;-123.962;2023-04-04T04:31:12;102031.20;;;5.72;71.94
51067;BME280;37112;45.892;-123.962;2023-04-04T04:33:30;102035.17;;;5.69;71.99
51067;BME280;37112;45.892;-123.962;2023-04-04T04:35:42;102033.31;;;5.66;71.93
51067;BME280;37112;45.892;-123.962;2023-04-04T04:37:52;102028.60;;;5.64;72.21
51067;BME280;37112;45.892;-123.962;2023-04-04T04:40:04;102030.70;;;5.64;72.35
51067;BME280;37112;45.892;-123.962;2023-04-04T04:42:21;102037.85;;;5.67;72.59
51067;BME280;37112;45.892;-123.962;2023-04-04T04:44:34;102042.51;;;5.71;72.86
51067;BME280;37112;45.892;-123.962;2023-04-04T04:46:45;102027.98;;;5.74;72.83
51067;BME280;37112;45.892;-123.962;2023-04-04T04:48:55;102040.11;;;5.75;72.49
51067;BME280;37112;45.892;-123.962;2023-04-04T04:51:08;102043.30;;;5.74;72.41
51067;BME280;37112;45.892;-123.962;2023-04-04T04:53:23;102043.66;;;5.68;72.09
51067;BME280;37112;45.892;-123.962;2023-04-04T04:55:33;102059.09;;;5.56;71.64
51067;BME280;37112;45.892;-123.962;2023-04-04T04:57:47;102056.61;;;5.44;71.51
51067;BME280;37112;45.892;-123.962;2023-04-04T05:00:01;102050.73;;;5.32;71.54
51067;BME280;37112;45.892;-123.962;2023-04-04T05:02:11;102045.45;;;5.24;71.68
51067;BME280;37112;45.892;-123.962;2023-04-04T05:04:22;102042.58;;;5.18;71.87
51067;BME280;37112;45.892;-123.962;2023-04-04T05:06:40;102035.98;;;5.15;72.05
51067;BME280;37112;45.892;-123.962;2023-04-04T05:08:51;102041.31;;;5.13;72.19
51067;BME280;37112;45.892;-123.962;2023-04-04T05:11:06;102043.27;;;5.12;72.19
51067;BME280;37112;45.892;-123.962;2023-04-04T05:13:16;102043.38;;;5.08;72.24
51067;BME280;37112;45.892;-123.962;2023-04-04T05:15:27;102038.21;;;5.02;72.19
51067;BME280;37112;45.892;-123.962;2023-04-04T05:17:38;102039.75;;;4.97;72.19
51067;BME280;37112;45.892;-123.962;2023-04-04T05:19:49;102035.15;;;4.91;72.18
51067;BME280;37112;45.892;-123.962;2023-04-04T05:22:01;102035.45;;;4.85;72.39
51067;BME280;37112;45.892;-123.962;2023-04-04T05:24:24;102037.10;;;4.82;72.53
51067;BME280;37112;45.892;-123.962;2023-04-04T05:26:34;102041.21;;;4.79;72.57
51067;BME280;37112;45.892;-123.962;2023-04-04T05:28:45;102047.30;;;4.74;72.46
51067;BME280;37112;45.892;-123.962;2023-04-04T05:30:56;102051.43;;;4.71;72.77
51067;BME280;37112;45.892;-123.962;2023-04-04T05:33:09;102044.41;;;4.70;72.95
51067;BME280;37112;45.892;-123.962;2023-04-04T05:35:22;102052.73;;;4.68;73.14
51067;BME280;37112;45.892;-123.962;2023-04-04T05:37:32;102053.70;;;4.64;73.04
51067;BME280;37112;45.892;-123.962;2023-04-04T05:39:42;102054.53;;;4.58;73.16
51067;BME280;37112;45.892;-123.962;2023-04-04T05:41:52;102056.08;;;4.51;73.30
51067;BME280;37112;45.892;-123.962;2023-04-04T05:44:03;102051.66;;;4.44;73.51
51067;BME280;37112;45.892;-123.962;2023-04-04T05:46:12;102052.50;;;4.37;73.73
51067;BME280;37112;45.892;-123.962;2023-04-04T05:48:26;102053.85;;;4.31;73.97
51067;BME280;37112;45.892;-123.962;2023-04-04T05:50:36;102059.04;;;4.27;74.23
51067;BME280;37112;45.892;-123.962;2023-04-04T05:52:47;102062.52;;;4.20;74.46
51067;BME280;37112;45.892;-123.962;2023-04-04T05:54:57;102055.52;;;4.17;75.15
51067;BME280;37112;45.892;-123.962;2023-04-04T05:57:08;102055.50;;;4.19;76.42
51067;BME280;37112;45.892;-123.962;2023-04-04T05:59:22;102058.41;;;4.31;77.60
51067;BME280;37112;45.892;-123.962;2023-04-04T06:01:36;102055.64;;;4.46;78.14
51067;BME280;37112;45.892;-123.962;2023-04-04T06:03:52;102055.05;;;4.66;78.20
51067;BME280;37112;45.892;-123.962;2023-04-04T06:06:07;102054.19;;;4.90;77.88
51067;BME280;37112;45.892;-123.962;2023-04-04T06:08:17;102050.38;;;5.09;76.86
51067;BME280;37112;45.892;-123.962;2023-04-04T06:10:27;102054.70;;;5.27;76.69
51067;BME280;37112;45.892;-123.962;2023-04-04T06:12:37;102052.19;;;5.37;76.02
51067;BME280;37112;45.892;-123.962;2023-04-04T06:14:49;102050.02;;;5.46;75.32
51067;BME280;37112;45.892;-123.962;2023-04-04T06:17:01;102052.27;;;5.55;75.13
51067;BME280;37112;45.892;-123.962;2023-04-04T06:19:11;102047.15;;;5.62;74.25
51067;BME280;37112;45.892;-123.962;2023-04-04T06:21:23;102045.77;;;5.68;72.98
51067;BME280;37112;45.892;-123.962;2023-04-04T06:23:33;102050.06;;;5.72;71.91
51067;BME280;37112;45.892;-123.962;2023-04-04T06:25:45;102037.55;;;5.79;72.28
51067;BME280;37112;45.892;-123.962;2023-04-04T06:27:58;102036.35;;;5.84;71.99
51067;BME280;37112;45.892;-123.962;2023-04-04T06:30:11;102038.39;;;5.87;71.87
51067;BME280;37112;45.892;-123.962;2023-04-04T06:32:27;102035.23;;;5.86;71.39
51067;BME280;37112;45.892;-123.962;2023-04-04T06:34:38;102033.61;;;5.87;70.94
51067;BME280;37112;45.892;-123.962;2023-04-04T06:36:49;102037.27;;;5.90;70.31
51067;BME280;37112;45.892;-123.962;2023-04-04T06:39:00;102032.44;;;5.93;71.17
51067;BME280;37112;45.892;-123.962;2023-04-04T06:41:11;102036.21;;;5.89;70.90
51067;BME280;37112;45.892;-123.962;2023-04-04T06:43:22;102037.72;;;5.79;70.74
51067;BME280;37112;45.892;-123.962;2023-04-04T06:45:32;102038.79;;;5.65;70.54
51067;BME280;37112;45.892;-123.962;2023-04-04T06:47:42;102039.40;;;5.48;70.35
51067;BME280;37112;45.892;-123.962;2023-04-04T06:49:53;102046.77;;;5.35;70.80
51067;BME280;37112;45.892;-123.962;2023-04-04T06:52:03;102046.13;;;5.25;71.10
51067;BME280;37112;45.892;-123.962;2023-04-04T06:54:14;102043.64;;;5.12;71.02
51067;BME280;37112;45.892;-123.962;2023-04-04T06:56:25;102036.52;;;5.00;71.43
51067;BME280;37112;45.892;-123.962;2023-04-04T06:58:35;102034.16;;;4.88;71.84
51067;BME280;37112;45.892;-123.962;2023-04-04T07:00:47;102032.48;;;4.76;71.89
51067;BME280;37112;45.892;-123.962;2023-04-04T07:03:00;102031.27;;;4.68;72.21
51067;BME280;37112;45.892;-123.962;2023-04-04T07:05:11;102032.80;;;4.62;72.54
51067;BME280;37112;45.892;-123.962;2023-04-04T07:07:21;102029.62;;;4.54;72.72
51067;BME280;37112;45.892;-123.962;2023-04-04T07:09:31;102033.33;;;4.46;73.07
51067;BME280;37112;45.892;-123.962;2023-04-04T07:11:41;102035.96;;;4.38;73.26
51067;BME280;37112;45.892;-123.962;2023-04-04T07:13:51;102030.79;;;4.33;73.48
51067;BME280;37112;45.892;-123.962;2023-04-04T07:16:02;102026.47;;;4.29;73.89
51067;BME280;37112;45.892;-123.962;2023-04-04T07:18:14;102037.58;;;4.27;74.66
51067;BME280;37112;45.892;-123.962;2023-04-04T07:20:25;102042.60;;;4.23;75.97
51067;BME280;37112;45.892;-123.962;2023-04-04T07:22:37;102040.16;;;4.22;77.09
51067;BME280;37112;45.892;-123.962;2023-04-04T07:24:48;102032.13;;;4.36;80.03
51067;BME280;37112;45.892;-123.962;2023-04-04T07:26:58;102033.58;;;4.59;81.62
51067;BME280;37112;45.892;-123.962;2023-04-04T07:29:09;102029.52;;;4.75;81.46
51067;BME280;37112;45.892;-123.962;2023-04-04T07:31:19;102028.48;;;4.90;81.31
51067;BME280;37112;45.892;-123.962;2023-04-04T07:33:30;102030.17;;;5.00;81.63
51067;BME280;37112;45.892;-123.962;2023-04-04T07:35:40;102027.40;;;5.06;80.08
51067;BME280;37112;45.892;-123.962;2023-04-04T07:37:50;102031.05;;;5.08;79.49
51067;BME280;37112;45.892;-123.962;2023-04-04T07:40:00;102037.91;;;5.08;78.91
51067;BME280;37112;45.892;-123.962;2023-04-04T07:42:10;102038.15;;;5.05;78.51
51067;BME280;37112;45.892;-123.962;2023-04-04T07:44:21;102035.40;;;5.02;78.19
51067;BME280;37112;45.892;-123.962;2023-04-04T07:46:30;102030.61;;;4.97;77.97
51067;BME280;37112;45.892;-123.962;2023-04-04T07:48:40;102035.15;;;4.90;77.68
51067;BME280;37112;45.892;-123.962;2023-04-04T07:50:51;102042.35;;;4.84;77.62
51067;BME280;37112;45.892;-123.962;2023-04-04T07:53:02;102038.73;;;4.80;77.56
51067;BME280;37112;45.892;-123.962;2023-04-04T07:55:11;102036.55;;;4.76;77.64
51067;BME280;37112;45.892;-123.962;2023-04-04T07:57:23;102030.45;;;4.72;77.47
51067;BME280;37112;45.892;-123.962;2023-04-04T07:59:33;102026.48;;;4.69;77.60
51067;BME280;37112;45.892;-123.962;2023-04-04T08:01:43;102020.61;;;4.64;77.50
51067;BME280;37112;45.892;-123.962;2023-04-04T08:03:53;102027.05;;;4.60;77.44
51067;BME280;37112;45.892;-123.962;2023-04-04T08:06:03;102032.42;;;4.55;77.52
51067;BME280;37112;45.892;-123.962;2023-04-04T08:08:13;102041.35;;;4.49;77.45
51067;BME280;37112;45.892;-123.962;2023-04-04T08:10:23;102062.41;;;4.42;77.68
51067;BME280;37112;45.892;-123.962;2023-04-04T08:12:34;102060.25;;;4.37;78.69
51067;BME280;37112;45.892;-123.962;2023-04-04T08:14:43;102054.14;;;4.34;78.90
51067;BME280;37112;45.892;-123.962;2023-04-04T08:16:53;102044.30;;;4.34;79.20
51067;BME280;37112;45.892;-123.962;2023-04-04T08:19:04;102042.54;;;4.34;79.24
51067;BME280;37112;45.892;-123.962;2023-04-04T08:21:14;102046.41;;;4.34;79.39
51067;BME280;37112;45.892;-123.962;2023-04-04T08:23:25;102044.96;;;4.35;79.53
51067;BME280;37112;45.892;-123.962;2023-04-04T08:25:35;102043.90;;;4.37;79.72
51067;BME280;37112;45.892;-123.962;2023-04-04T08:27:45;102038.03;;;4.39;79.76
51067;BME280;37112;45.892;-123.962;2023-04-04T08:29:55;102038.71;;;4.40;79.75
51067;BME280;37112;45.892;-123.962;2023-04-04T08:32:06;102035.02;;;4.40;79.82
51067;BME280;37112;45.892;-123.962;2023-04-04T08:34:16;102034.98;;;4.42;79.82
51067;BME280;37112;45.892;-123.962;2023-04-04T08:36:27;102036.41;;;4.41;79.67
51067;BME280;37112;45.892;-123.962;2023-04-04T08:38:38;102033.66;;;4.39;79.53
51067;BME280;37112;45.892;-123.962;2023-04-04T08:40:50;102032.30;;;4.36;79.51
51067;BME280;37112;45.892;-123.962;2023-04-04T08:43:01;102029.42;;;4.31;79.52
51067;BME280;37112;45.892;-123.962;2023-04-04T08:45:17;102032.80;;;4.30;79.83
51067;BME280;37112;45.892;-123.962;2023-04-04T08:47:27;102030.04;;;4.26;79.76
51067;BME280;37112;45.892;-123.962;2023-04-04T08:49:39;102033.29;;;4.23;79.85
51067;BME280;37112;45.892;-123.962;2023-04-04T08:51:52;102035.83;;;4.18;79.77
51067;BME280;37112;45.892;-123.962;2023-04-04T08:54:04;102029.75;;;4.15;79.96
51067;BME280;37112;45.892;-123.962;2023-04-04T08:56:15;102020.33;;;4.11;80.18
51067;BME280;37112;45.892;-123.962;2023-04-04T08:58:25;102024.27;;;4.07;80.09
51067;BME280;37112;45.892;-123.962;2023-04-04T09:00:35;102024.67;;;4.05;80.48
51067;BME280;37112;45.892;-123.962;2023-04-04T09:02:54;102026.23;;;4.06;80.77
51067;BME280;37112;45.892;-123.962;2023-04-04T09:05:07;102017.58;;;4.08;80.86
51067;BME280;37112;45.892;-123.962;2023-04-04T09:07:17;102015.87;;;4.06;80.88
51067;BME280;37112;45.892;-123.962;2023-04-04T09:09:28;102015.00;;;4.05;81.13
51067;BME280;37112;45.892;-123.962;2023-04-04T09:11:40;102018.66;;;4.07;81.24
51067;BME280;37112;45.892;-123.962;2023-04-04T09:13:51;102013.00;;;4.08;81.33
51067;BME280;37112;45.892;-123.962;2023-04-04T09:16:04;102006.83;;;4.09;81.28
51067;BME280;37112;45.892;-123.962;2023-04-04T09:18:14;102006.62;;;4.10;81.41
51067;BME280;37112;45.892;-123.962;2023-04-04T09:20:41;102007.10;;;4.12;81.53
51067;BME280;37112;45.892;-123.962;2023-04-04T09:22:51;102000.27;;;4.13;81.60
51067;BME280;37112;45.892;-123.962;2023-04-04T09:25:01;101997.79;;;4.12;81.56
51067;BME280;37112;45.892;-123.962;2023-04-04T09:27:17;101998.50;;;4.12;81.56
51067;BME280;37112;45.892;-123.962;2023-04-04T09:29:27;101992.35;;;4.11;81.72
51067;BME280;37112;45.892;-123.962;2023-04-04T09:31:38;101992.33;;;4.12;81.60
51067;BME280;37112;45.892;-123.962;2023-04-04T09:33:49;101987.59;;;4.12;81.65
51067;BME280;37112;45.892;-123.962;2023-04-04T09:36:01;101986.55;;;4.12;81.63
51067;BME280;37112;45.892;-123.962;2023-04-04T09:38:10;101977.92;;;4.12;81.80
51067;BME280;37112;45.892;-123.962;2023-04-04T09:40:22;101977.58;;;4.13;81.82
51067;BME280;37112;45.892;-123.962;2023-04-04T09:42:33;101978.98;;;4.13;81.89
51067;BME280;37112;45.892;-123.962;2023-04-04T09:44:43;101974.55;;;4.14;82.02
51067;BME280;37112;45.892;-123.962;2023-04-04T09:46:53;101973.09;;;4.16;82.31
51067;BME280;37112;45.892;-123.962;2023-04-04T09:49:21;101970.94;;;4.18;82.43
51067;BME280;37112;45.892;-123.962;2023-04-04T09:51:37;101965.47;;;4.19;82.41
51067;BME280;37112;45.892;-123.962;2023-04-04T09:53:50;101960.73;;;4.19;82.29
51067;BME280;37112;45.892;-123.962;2023-04-04T09:55:59;101957.60;;;4.17;82.25
51067;BME280;37112;45.892;-123.962;2023-04-04T09:58:17;101951.49;;;4.16;82.46
51067;BME280;37112;45.892;-123.962;2023-04-04T10:00:29;101949.89;;;4.17;82.55
51067;BME280;37112;45.892;-123.962;2023-04-04T10:02:48;101954.67;;;4.15;82.59
51067;BME280;37112;45.892;-123.962;2023-04-04T10:05:00;101964.92;;;4.13;82.63
51067;BME280;37112;45.892;-123.962;2023-04-04T10:07:13;101985.77;;;4.08;83.25
51067;BME280;37112;45.892;-123.962;2023-04-04T10:09:25;101991.48;;;4.03;83.28
51067;BME280;37112;45.892;-123.962;2023-04-04T10:11:37;101981.27;;;3.96;82.85
51067;BME280;37112;45.892;-123.962;2023-04-04T10:13:47;101969.98;;;3.88;83.23
51067;BME280;37112;45.892;-123.962;2023-04-04T10:16:02;101960.81;;;3.91;83.74
51067;BME280;37112;45.892;-123.962;2023-04-04T10:18:12;101964.80;;;3.93;83.83
51067;BME280;37112;45.892;-123.962;2023-04-04T10:20:23;101965.33;;;3.93;83.49
51067;BME280;37112;45.892;-123.962;2023-04-04T10:22:33;101954.52;;;3.88;82.96
51067;BME280;37112;45.892;-123.962;2023-04-04T10:24:44;101956.53;;;3.85;83.00
51067;BME280;37112;45.892;-123.962;2023-04-04T10:26:55;101950.95;;;3.83;82.95
51067;BME280;37112;45.892;-123.962;2023-04-04T10:29:05;101948.57;;;3.78;82.99
51067;BME280;37112;45.892;-123.962;2023-04-04T10:31:24;101950.23;;;3.75;83.08
51067;BME280;37112;45.892;-123.962;2023-04-04T10:33:43;101950.44;;;3.74;83.02
51067;BME280;37112;45.892;-123.962;2023-04-04T10:35:57;101950.45;;;3.72;83.17
51067;BME280;37112;45.892;-123.962;2023-04-04T10:38:10;101949.59;;;3.71;83.11
51067;BME280;37112;45.892;-123.962;2023-04-04T10:40:23;101949.27;;;3.70;83.25
51067;BME280;37112;45.892;-123.962;2023-04-04T10:42:40;101953.67;;;3.69;83.47
51067;BME280;37112;45.892;-123.962;2023-04-04T10:44:54;101951.05;;;3.69;83.58
51067;BME280;37112;45.892;-123.962;2023-04-04T10:47:18;101951.27;;;3.68;83.54
51067;BME280;37112;45.892;-123.962;2023-04-04T10:49:30;101945.15;;;3.64;83.47
51067;BME280;37112;45.892;-123.962;2023-04-04T10:51:41;101942.08;;;3.60;83.51
51067;BME280;37112;45.892;-123.962;2023-04-04T10:54:02;101944.05;;;3.58;83.55
51067;BME280;37112;45.892;-123.962;2023-04-04T10:56:14;101940.52;;;3.58;83.73
51067;BME280;37112;45.892;-123.962;2023-04-04T10:58:24;101939.46;;;3.59;83.81
51067;BME280;37112;45.892;-123.962;2023-04-04T11:00:50;101936.31;;;3.58;83.88
51067;BME280;37112;45.892;-123.962;2023-04-04T11:03:03;101928.59;;;3.58;84.03
51067;BME280;37112;45.892;-123.962;2023-04-04T11:05:18;101924.36;;;3.58;84.14
51067;BME280;37112;45.892;-123.962;2023-04-04T11:07:32;101927.02;;;3.57;83.99
51067;BME280;37112;45.892;-123.962;2023-04-04T11:09:54;101925.33;;;3.54;84.04
51067;BME280;37112;45.892;-123.962;2023-04-04T11:12:11;101928.34;;;3.53;84.09